Time;durP1;ratioP1;P1;durP2;ratioP2;P2;SDS_P1;SDS_P2;PMS_P1;PMS_P2;Temp;Humidity;BMP_temperature;BMP_pressure;BME280_temperature;BME280_humidity;BME280_pressure;Samples;Min_cycle;Max_cycle;Signal;HPM_P1;HPM_P2
2022/08/23 00:00:15;;;;;;;;;36.20;31.40;;;;;;;;5190543;28;8902;-75
2022/08/23 00:02:46;;;;;;;;;28.80;26.80;;;;;;;;5171962;28;8903;-76
2022/08/23 00:05:17;;;;;;;;;36.40;33.00;;;;;;;;5204643;28;8797;-77
2022/08/23 00:07:49;;;;;;;;;40.80;34.40;;;;;;;;5189242;28;8825;-76
2022/08/23 00:10:20;;;;;;;;;35.00;31.60;;;;;;;;5188150;28;8874;-76
2022/08/23 00:12:51;;;;;;;;;35.20;31.40;;;;;;;;5188130;28;8994;-76
2022/08/23 00:15:22;;;;;;;;;32.60;30.00;;;;;;;;5171617;28;8812;-76
2022/08/23 00:17:54;;;;;;;;;31.20;30.20;;;;;;;;5188489;28;8809;-75
2022/08/23 00:20:25;;;;;;;;;28.40;27.40;;;;;;;;5198201;28;9583;-75
2022/08/23 00:23:15;;;;;;;;;28.80;27.20;;;;;;;;5206846;28;8827;-75
2022/08/23 00:25:46;;;;;;;;;31.20;29.60;;;;;;;;5207404;28;8783;-75
2022/08/23 00:28:17;;;;;;;;;29.60;26.40;;;;;;;;5187662;28;9508;-75
2022/08/23 00:30:48;;;;;;;;;32.40;30.00;;;;;;;;5204323;28;8777;-75
2022/08/23 00:33:20;;;;;;;;;30.60;27.20;;;;;;;;5171497;28;8793;-74
2022/08/23 00:35:51;;;;;;;;;26.60;26.60;;;;;;;;5155261;28;9500;-75
2022/08/23 00:38:24;;;;;;;;;28.80;27.00;;;;;;;;5155914;28;8789;-75
2022/08/23 00:40:55;;;;;;;;;28.20;28.20;;;;;;;;5221446;28;9525;-75
2022/08/23 00:49:11;;;;;;;;;27.75;24.75;;;;;;;;5207710;28;8807;-75
2022/08/23 00:51:48;;;;;;;;;27.40;25.60;;;;;;;;5175505;28;8783;-75
2022/08/23 00:54:21;;;;;;;;;25.20;25.00;;;;;;;;5206275;28;8784;-75
2022/08/23 00:56:53;;;;;;;;;26.20;26.20;;;;;;;;5191360;28;8783;-75
2022/08/23 00:59:24;;;;;;;;;24.80;24.80;;;;;;;;5226078;28;8826;-75
2022/08/23 01:01:56;;;;;;;;;19.20;19.20;;;;;;;;5191503;28;8782;-75
2022/08/23 01:04:31;;;;;;;;;26.60;26.00;;;;;;;;5207819;28;8787;-75
2022/08/23 01:07:22;;;;;;;;;20.75;20.50;;;;;;;;5186799;28;8904;-76
2022/08/23 01:09:56;;;;;;;;;18.75;17.75;;;;;;;;5155333;28;8769;-75
2022/08/23 01:12:30;;;;;;;;;26.00;26.00;;;;;;;;5171296;28;9556;-77
2022/08/23 01:15:30;;;;;;;;;24.80;24.80;;;;;;;;5190080;28;8800;-76
2022/08/23 01:18:03;;;;;;;;;22.40;22.40;;;;;;;;5203771;28;8781;-77
2022/08/23 01:20:38;;;;;;;;;24.60;24.60;;;;;;;;5188646;28;8785;-77
2022/08/23 01:23:23;;;;;;;;;27.80;27.20;;;;;;;;5175140;28;8777;-75
2022/08/23 01:25:55;;;;;;;;;19.20;19.20;;;;;;;;5173544;28;8803;-75
2022/08/23 01:28:26;;;;;;;;;22.00;22.00;;;;;;;;5192057;28;8906;-75
2022/08/23 01:30:57;;;;;;;;;24.20;24.20;;;;;;;;5175014;28;8774;-75
2022/08/23 01:33:28;;;;;;;;;27.80;27.80;;;;;;;;5175214;28;8789;-75
2022/08/23 01:36:00;;;;;;;;;26.00;25.60;;;;;;;;5175032;28;9606;-75
2022/08/23 01:38:33;;;;;;;;;25.40;25.40;;;;;;;;5158995;28;8855;-75
2022/08/23 01:41:05;;;;;;;;;20.60;20.60;;;;;;;;5176560;28;9587;-76
2022/08/23 01:43:55;;;;;;;;;25.60;25.60;;;;;;;;5227365;28;8823;-74
2022/08/23 01:46:29;;;;;;;;;25.60;25.20;;;;;;;;5195795;28;8810;-74
2022/08/23 01:49:02;;;;;;;;;27.20;27.20;;;;;;;;5211354;28;9529;-74
2022/08/23 01:51:34;;;;;;;;;25.20;25.20;;;;;;;;5195052;28;8791;-74
2022/08/23 01:54:06;;;;;;;;;26.40;26.20;;;;;;;;5211237;28;8787;-75
2022/08/23 01:56:38;;;;;;;;;28.60;28.60;;;;;;;;5195094;28;8798;-74
2022/08/23 01:59:12;;;;;;;;;26.40;26.40;;;;;;;;5170581;28;8801;-74
2022/08/23 02:02:02;;;;;;;;;29.40;28.40;;;;;;;;5175316;28;8805;-72
2022/08/23 02:04:33;;;;;;;;;54.40;44.00;;;;;;;;5187007;28;8919;-73
2022/08/23 02:07:04;;;;;;;;;44.40;38.00;;;;;;;;5190588;28;8836;-74
2022/08/23 02:09:36;;;;;;;;;36.80;33.80;;;;;;;;5191850;28;8813;-74
2022/08/23 02:12:07;;;;;;;;;29.60;29.00;;;;;;;;5188257;28;8890;-75
2022/08/23 02:14:41;;;;;;;;;31.20;30.20;;;;;;;;5225328;28;8838;-74
2022/08/23 02:17:20;;;;;;;;;31.00;30.00;;;;;;;;5179231;28;9525;-74
2022/08/23 02:19:52;;;;;;;;;22.20;22.20;;;;;;;;5192144;28;8910;-74
2022/08/23 02:22:23;;;;;;;;;27.00;27.00;;;;;;;;5193557;28;8837;-72
2022/08/23 02:24:54;;;;;;;;;27.60;27.60;;;;;;;;5228289;28;8841;-74
2022/08/23 02:27:25;;;;;;;;;32.20;30.00;;;;;;;;5193967;28;8834;-74
2022/08/23 02:29:58;;;;;;;;;25.75;25.75;;;;;;;;5193975;28;8872;-75
2022/08/23 02:32:29;;;;;;;;;27.50;27.50;;;;;;;;5193451;28;8802;-75
2022/08/23 02:35:00;;;;;;;;;23.25;23.25;;;;;;;;5225540;28;8833;-75
2022/08/23 02:37:33;;;;;;;;;29.00;28.50;;;;;;;;5190170;28;8797;-73
2022/08/23 02:40:05;;;;;;;;;25.75;24.75;;;;;;;;5157790;28;8993;-74
2022/08/23 02:42:54;;;;;;;;;25.60;25.60;;;;;;;;5194623;28;8809;-73
2022/08/23 02:45:26;;;;;;;;;23.00;23.00;;;;;;;;5205929;28;8789;-74
2022/08/23 02:47:58;;;;;;;;;26.00;25.75;;;;;;;;5173510;28;8903;-72
2022/08/23 02:50:35;;;;;;;;;22.00;22.00;;;;;;;;5189609;28;8818;-74
2022/08/23 02:53:25;;;;;;;;;20.25;20.25;;;;;;;;5192248;28;8844;-74
2022/08/23 02:55:57;;;;;;;;;22.25;22.25;;;;;;;;5192310;28;8804;-74
2022/08/23 02:58:28;;;;;;;;;23.25;23.25;;;;;;;;5193413;28;8790;-74
2022/08/23 03:01:00;;;;;;;;;22.75;22.25;;;;;;;;5210022;28;8786;-74
2022/08/23 03:03:32;;;;;;;;;21.75;21.00;;;;;;;;5177191;28;8794;-74
2022/08/23 03:06:21;;;;;;;;;22.00;21.25;;;;;;;;5227549;28;8925;-74
2022/08/23 03:08:53;;;;;;;;;22.75;21.75;;;;;;;;5193098;28;8814;-74
2022/08/23 03:11:25;;;;;;;;;17.25;16.75;;;;;;;;5186321;28;8845;-74
2022/08/23 03:13:57;;;;;;;;;19.50;19.50;;;;;;;;5172914;28;8851;-74
2022/08/23 03:16:29;;;;;;;;;23.00;22.75;;;;;;;;5156587;28;8813;-73
2022/08/23 03:19:01;;;;;;;;;28.80;27.20;;;;;;;;5188830;28;8933;-74
2022/08/23 03:21:33;;;;;;;;;30.00;27.40;;;;;;;;5222537;28;8807;-74
2022/08/23 03:24:04;;;;;;;;;25.50;22.75;;;;;;;;5193008;28;8838;-75
2022/08/23 03:26:36;;;;;;;;;18.50;18.00;;;;;;;;5176437;28;8787;-73
2022/08/23 03:29:08;;;;;;;;;18.75;18.75;;;;;;;;5192611;28;8830;-74
2022/08/23 03:31:54;;;;;;;;;20.25;19.25;;;;;;;;5192334;28;8814;-74
2022/08/23 03:34:25;;;;;;;;;21.00;20.25;;;;;;;;5209410;28;8791;-75
2022/08/23 03:36:58;;;;;;;;;26.25;23.75;;;;;;;;5188574;28;8828;-73
2022/08/23 03:39:32;;;;;;;;;24.75;24.50;;;;;;;;5206863;28;8816;-75
2022/08/23 03:42:05;;;;;;;;;24.25;24.25;;;;;;;;5173572;28;9564;-77
2022/08/23 03:44:41;;;;;;;;;25.00;25.00;;;;;;;;5188361;28;8781;-75
2022/08/23 03:47:12;;;;;;;;;20.50;20.50;;;;;;;;5172162;28;8789;-75
2022/08/23 03:49:50;;;;;;;;;24.25;24.25;;;;;;;;5173099;28;8790;-75
2022/08/23 03:52:22;;;;;;;;;21.50;21.50;;;;;;;;5201825;28;9529;-76
2022/08/23 03:54:54;;;;;;;;;22.75;22.75;;;;;;;;5174298;28;8775;-75
2022/08/23 03:57:26;;;;;;;;;23.75;23.75;;;;;;;;5206902;28;9533;-74
2022/08/23 03:59:58;;;;;;;;;24.25;23.75;;;;;;;;5173264;28;8813;-73
2022/08/23 04:02:31;;;;;;;;;28.00;28.00;;;;;;;;5184238;28;8799;-74
2022/08/23 04:05:04;;;;;;;;;28.40;25.60;;;;;;;;5192125;28;8808;-74
2022/08/23 04:07:53;;;;;;;;;32.00;30.50;;;;;;;;5210975;28;8817;-73
2022/08/23 04:10:28;;;;;;;;;28.00;28.00;;;;;;;;5205400;28;8807;-74
2022/08/23 04:13:01;;;;;;;;;28.50;28.50;;;;;;;;5170287;28;8783;-74
2022/08/23 04:15:32;;;;;;;;;23.00;23.00;;;;;;;;5171877;28;8826;-73
2022/08/23 04:18:05;;;;;;;;;26.75;26.25;;;;;;;;5172831;28;8795;-73
2022/08/23 04:20:37;;;;;;;;;25.00;25.00;;;;;;;;5188412;28;8795;-74
2022/08/23 04:23:10;;;;;;;;;28.00;28.00;;;;;;;;5188181;28;8815;-74
2022/08/23 04:25:52;;;;;;;;;27.50;27.50;;;;;;;;5194174;28;8797;-73
2022/08/23 04:28:24;;;;;;;;;29.50;29.50;;;;;;;;5155929;28;8835;-83
2022/08/23 04:30:59;;;;;;;;;34.40;32.20;;;;;;;;5180085;28;8806;-74
2022/08/23 04:33:31;;;;;;;;;35.60;33.00;;;;;;;;5193219;28;8910;-74
2022/08/23 04:36:21;;;;;;;;;30.60;30.20;;;;;;;;5186910;28;8879;-74
2022/08/23 04:39:11;;;;;;;;;30.25;29.75;;;;;;;;5172044;28;8923;-74
2022/08/23 04:44:34;;;;;;;;;35.20;32.40;;;;;;;;5185811;28;8796;-74
2022/08/23 04:47:25;;;;;;;;;28.00;27.25;;;;;;;;5172147;28;8840;-74
2022/08/23 04:50:02;;;;;;;;;31.20;30.00;;;;;;;;5174090;28;8787;-74
2022/08/23 04:52:35;;;;;;;;;27.00;27.00;;;;;;;;5161895;28;8789;-75
2022/08/23 04:55:08;;;;;;;;;25.00;25.00;;;;;;;;5185631;28;8788;-75
2022/08/23 04:57:58;;;;;;;;;22.75;22.50;;;;;;;;5188239;28;8809;-75
2022/08/23 05:00:34;;;;;;;;;24.50;24.25;;;;;;;;5153488;28;8797;-75
2022/08/23 05:03:06;;;;;;;;;18.00;18.00;;;;;;;;5170083;28;8796;-73
2022/08/23 05:05:37;;;;;;;;;21.50;21.50;;;;;;;;5202145;28;8805;-74
2022/08/23 05:08:09;;;;;;;;;17.50;17.50;;;;;;;;5168599;28;8895;-75
2022/08/23 05:10:41;;;;;;;;;21.75;21.75;;;;;;;;5219797;28;9505;-74
2022/08/23 05:13:13;;;;;;;;;25.50;25.50;;;;;;;;5189598;28;8937;-73
2022/08/23 05:15:44;;;;;;;;;21.25;21.00;;;;;;;;5207481;28;8768;-73
2022/08/23 05:18:16;;;;;;;;;21.50;21.50;;;;;;;;5174876;28;8794;-72
2022/08/23 05:21:12;;;;;;;;;23.00;23.00;;;;;;;;5193716;28;8844;-74
2022/08/23 05:23:44;;;;;;;;;21.50;21.50;;;;;;;;5191096;28;8798;-73
2022/08/23 05:26:21;;;;;;;;;26.75;26.00;;;;;;;;5173585;28;8813;-74
2022/08/23 05:28:53;;;;;;;;;24.00;24.00;;;;;;;;5194368;28;8821;-74
2022/08/23 05:31:30;;;;;;;;;22.25;22.25;;;;;;;;5191319;28;8790;-74
2022/08/23 05:34:08;;;;;;;;;24.50;24.50;;;;;;;;5191515;28;8837;-74
2022/08/23 05:36:48;;;;;;;;;28.00;28.00;;;;;;;;5176496;28;8767;-74
2022/08/23 05:39:20;;;;;;;;;21.75;21.75;;;;;;;;5207610;28;8852;-74
2022/08/23 05:42:11;;;;;;;;;23.75;23.50;;;;;;;;5193403;28;8844;-75
2022/08/23 05:44:44;;;;;;;;;23.25;23.25;;;;;;;;5175064;28;8840;-76
2022/08/23 05:47:34;;;;;;;;;24.75;24.00;;;;;;;;5210256;28;8795;-75
2022/08/23 05:50:24;;;;;;;;;26.00;25.25;;;;;;;;5225287;28;8771;-75
2022/08/23 05:52:55;;;;;;;;;22.25;22.25;;;;;;;;5207171;28;9638;-74
2022/08/23 05:55:26;;;;;;;;;22.75;22.75;;;;;;;;5190947;28;8787;-74
2022/08/23 05:58:01;;;;;;;;;21.50;21.50;;;;;;;;5190672;28;8783;-74
2022/08/23 06:00:32;;;;;;;;;26.80;26.80;;;;;;;;5191141;28;8783;-72
2022/08/23 06:03:06;;;;;;;;;24.25;24.25;;;;;;;;5207520;28;8767;-73
2022/08/23 06:05:41;;;;;;;;;19.00;19.00;;;;;;;;5190252;28;8790;-73
2022/08/23 06:08:33;;;;;;;;;26.50;26.25;;;;;;;;5212733;28;8795;-73
2022/08/23 06:11:29;;;;;;;;;24.25;24.25;;;;;;;;5195115;28;8784;-74
2022/08/23 06:14:02;;;;;;;;;27.00;27.00;;;;;;;;5212099;28;8914;-74
2022/08/23 06:16:45;;;;;;;;;29.00;28.50;;;;;;;;5178375;28;9593;-74
2022/08/23 06:19:19;;;;;;;;;28.50;28.50;;;;;;;;5178624;28;8783;-73
2022/08/23 06:22:08;;;;;;;;;28.75;28.25;;;;;;;;5228844;28;8766;-74
2022/08/23 06:24:44;;;;;;;;;28.00;28.00;;;;;;;;5194535;28;9506;-74
2022/08/23 06:27:17;;;;;;;;;29.75;29.00;;;;;;;;5177832;28;8809;-75
2022/08/23 06:29:48;;;;;;;;;27.75;27.75;;;;;;;;5210710;28;8771;-74
2022/08/23 06:32:35;;;;;;;;;28.50;27.50;;;;;;;;5196642;28;8853;-74
2022/08/23 06:35:29;;;;;;;;;24.25;24.25;;;;;;;;5199892;28;8778;-75
2022/08/23 06:38:05;;;;;;;;;30.00;28.50;;;;;;;;5178589;28;8829;-73
2022/08/23 06:40:49;;;;;;;;;30.50;29.50;;;;;;;;5212362;28;8884;-74
2022/08/23 06:43:39;;;;;;;;;26.00;25.50;;;;;;;;5229033;28;8821;-75
2022/08/23 06:46:31;;;;;;;;;30.25;29.25;;;;;;;;5197098;28;8802;-73
2022/08/23 06:49:04;;;;;;;;;28.00;28.00;;;;;;;;5177609;28;8821;-73
2022/08/23 06:55:42;;;;;;;;;10.00;10.00;;;;;;;;5227956;28;8771;-73
2022/08/23 06:58:37;;;;;;;;;10.50;10.50;;;;;;;;5213588;28;9626;-74
2022/08/23 07:01:34;;;;;;;;;9.50;9.50;;;;;;;;5179071;28;8807;-73
2022/08/23 07:04:33;;;;;;;;;8.75;8.75;;;;;;;;5195916;28;8823;-74
2022/08/23 07:07:14;;;;;;;;;10.75;10.75;;;;;;;;5211333;28;8795;-74
2022/08/23 07:09:45;;;;;;;;;11.50;11.50;;;;;;;;5209727;28;8985;-74
2022/08/23 07:12:18;;;;;;;;;8.25;8.25;;;;;;;;5193210;28;8783;-71
2022/08/23 07:14:50;;;;;;;;;8.00;8.00;;;;;;;;5193365;28;9624;-71
2022/08/23 07:17:22;;;;;;;;;7.25;7.25;;;;;;;;5209566;28;8803;-72
2022/08/23 07:19:55;;;;;;;;;12.25;12.25;;;;;;;;5208620;28;8809;-72
2022/08/23 07:22:26;;;;;;;;;11.00;11.00;;;;;;;;5192922;28;8811;-72
2022/08/23 07:24:57;;;;;;;;;9.50;9.50;;;;;;;;5193056;28;8779;-72
2022/08/23 07:27:29;;;;;;;;;12.00;12.00;;;;;;;;5176610;28;8872;-72
2022/08/23 07:30:06;;;;;;;;;10.75;10.75;;;;;;;;5193294;28;8794;-72
2022/08/23 07:32:39;;;;;;;;;9.50;9.50;;;;;;;;5209232;28;8802;-72
2022/08/23 07:35:23;;;;;;;;;8.25;8.25;;;;;;;;5195275;28;8844;-72
2022/08/23 07:37:57;;;;;;;;;8.25;8.25;;;;;;;;5209553;28;9567;-72
2022/08/23 07:40:35;;;;;;;;;9.50;9.50;;;;;;;;5209307;28;8807;-72
2022/08/23 07:43:07;;;;;;;;;7.75;7.75;;;;;;;;5176456;28;8801;-72
2022/08/23 07:45:39;;;;;;;;;10.00;10.00;;;;;;;;5193145;28;8775;-72
2022/08/23 07:48:11;;;;;;;;;9.00;9.00;;;;;;;;5209139;28;8809;-72
2022/08/23 07:50:56;;;;;;;;;7.00;7.00;;;;;;;;5192927;28;8791;-73
2022/08/23 07:53:28;;;;;;;;;7.50;7.50;;;;;;;;5192706;28;9473;-73
2022/08/23 07:56:19;;;;;;;;;6.00;6.00;;;;;;;;5227390;28;8795;-71
2022/08/23 07:59:02;;;;;;;;;8.25;8.25;;;;;;;;5177958;28;8793;-71
2022/08/23 08:02:21;;;;;;;;;9.75;9.75;;;;;;;;5187764;28;8779;-71
2022/08/23 08:04:56;;;;;;;;;8.50;8.50;;;;;;;;5192007;28;8922;-72
2022/08/23 08:07:45;;;;;;;;;8.00;8.00;;;;;;;;5194924;28;8819;-72
2022/08/23 08:10:17;;;;;;;;;11.00;11.00;;;;;;;;5208607;28;8768;-69
2022/08/23 08:12:49;;;;;;;;;9.00;9.00;;;;;;;;5192151;28;8783;-72
2022/08/23 08:15:24;;;;;;;;;8.00;8.00;;;;;;;;5174876;28;8790;-72
2022/08/23 08:18:02;;;;;;;;;10.50;10.50;;;;;;;;5226708;28;8816;-71
2022/08/23 08:20:58;;;;;;;;;11.75;11.75;;;;;;;;5208402;28;8767;-72
2022/08/23 08:23:50;;;;;;;;;8.50;8.50;;;;;;;;5194398;28;8783;-72
2022/08/23 08:26:41;;;;;;;;;7.75;7.75;;;;;;;;5191903;28;8790;-71
2022/08/23 08:29:13;;;;;;;;;6.50;6.50;;;;;;;;5175964;28;9513;-72
2022/08/23 08:32:03;;;;;;;;;9.75;9.75;;;;;;;;5194187;28;8802;-72
2022/08/23 08:34:52;;;;;;;;;9.00;9.00;;;;;;;;5194513;28;9504;-72
2022/08/23 08:37:23;;;;;;;;;11.00;11.00;;;;;;;;5191758;28;8775;-71
2022/08/23 08:39:54;;;;;;;;;10.00;10.00;;;;;;;;5191749;28;8790;-72
2022/08/23 08:42:25;;;;;;;;;8.50;8.50;;;;;;;;5175451;28;8775;-72
2022/08/23 08:44:56;;;;;;;;;9.50;9.50;;;;;;;;5191669;28;8795;-72
2022/08/23 08:47:38;;;;;;;;;13.50;13.50;;;;;;;;5191948;28;8856;-72
2022/08/23 08:50:28;;;;;;;;;7.75;7.75;;;;;;;;5191509;28;8786;-72
2022/08/23 08:53:12;;;;;;;;;8.50;8.50;;;;;;;;5192136;28;8777;-72
2022/08/23 08:56:08;;;;;;;;;10.00;10.00;;;;;;;;5207606;28;8837;-72
2022/08/23 08:59:00;;;;;;;;;6.50;6.50;;;;;;;;5194481;28;8775;-70
2022/08/23 09:01:36;;;;;;;;;9.25;9.25;;;;;;;;5191974;28;8783;-71
2022/08/23 09:04:08;;;;;;;;;7.75;7.75;;;;;;;;5207509;28;8771;-71
2022/08/23 09:07:13;;;;;;;;;8.25;8.25;;;;;;;;5210867;28;8767;-71
2022/08/23 09:09:44;;;;;;;;;10.50;10.50;;;;;;;;5207994;28;8790;-71
2022/08/23 09:12:28;;;;;;;;;9.00;9.00;;;;;;;;5191294;28;8814;-72
2022/08/23 09:15:14;;;;;;;;;9.00;9.00;;;;;;;;5225408;28;8793;-72
2022/08/23 09:17:51;;;;;;;;;8.00;8.00;;;;;;;;5191479;28;8776;-72
2022/08/23 09:20:26;;;;;;;;;47.25;39.25;;;;;;;;5191193;28;8791;-72
2022/08/23 09:23:04;;;;;;;;;9.00;9.00;;;;;;;;5191195;28;8759;-72
2022/08/23 09:25:37;;;;;;;;;7.50;7.50;;;;;;;;5207876;28;8775;-72
2022/08/23 09:28:15;;;;;;;;;11.25;11.25;;;;;;;;5207591;28;9599;-72
2022/08/23 09:30:56;;;;;;;;;10.25;10.25;;;;;;;;5191131;28;8876;-72
2022/08/23 09:33:49;;;;;;;;;9.25;9.25;;;;;;;;5191559;28;9473;-71
2022/08/23 09:36:38;;;;;;;;;7.75;7.75;;;;;;;;5193957;28;8763;-71
2022/08/23 09:39:23;;;;;;;;;9.75;9.75;;;;;;;;5207659;28;8852;-71
2022/08/23 09:41:54;;;;;;;;;7.75;7.75;;;;;;;;5192592;28;9541;-70
2022/08/23 09:44:39;;;;;;;;;9.25;9.25;;;;;;;;5196403;28;9497;-71
2022/08/23 09:47:15;;;;;;;;;5.50;5.50;;;;;;;;5211895;28;9517;-72
2022/08/23 09:49:52;;;;;;;;;9.50;9.50;;;;;;;;5195152;28;8799;-72
2022/08/23 09:52:43;;;;;;;;;10.25;10.25;;;;;;;;5214312;28;8841;-71
2022/08/23 09:55:33;;;;;;;;;7.25;7.25;;;;;;;;5211731;28;8869;-71
2022/08/23 09:58:17;;;;;;;;;5.25;5.25;;;;;;;;5194941;28;8857;-71
2022/08/23 10:01:01;;;;;;;;;8.00;8.00;;;;;;;;5194591;28;8787;-72
2022/08/23 10:03:32;;;;;;;;;14.00;14.00;;;;;;;;5211528;28;8805;-72
2022/08/23 10:06:29;;;;;;;;;10.25;10.25;;;;;;;;5211444;28;8920;-72
2022/08/23 10:09:04;;;;;;;;;10.50;10.50;;;;;;;;5178475;28;8897;-72
2022/08/23 10:11:40;;;;;;;;;11.50;11.50;;;;;;;;5195220;28;8783;-72
2022/08/23 10:14:16;;;;;;;;;11.75;11.75;;;;;;;;5187539;28;8823;-72
2022/08/23 10:16:53;;;;;;;;;10.00;10.00;;;;;;;;5200322;28;8807;-71
2022/08/23 10:19:54;;;;;;;;;9.00;9.00;;;;;;;;5214156;28;8844;-70
2022/08/23 10:22:49;;;;;;;;;12.50;12.50;;;;;;;;5209441;28;8802;-69
2022/08/23 10:25:32;;;;;;;;;9.25;9.25;;;;;;;;5173904;28;8797;-71
2022/08/23 10:31:05;;;;;;;;;10.50;10.50;;;;;;;;5190367;28;8796;-71
2022/08/23 10:34:02;;;;;;;;;16.75;15.75;;;;;;;;5190330;28;8789;-70
2022/08/23 10:36:46;;;;;;;;;12.25;12.25;;;;;;;;5165248;28;8811;-70
2022/08/23 10:39:25;;;;;;;;;14.00;14.00;;;;;;;;5174448;28;8939;-70
2022/08/23 10:42:21;;;;;;;;;15.25;15.25;;;;;;;;5208671;28;8882;-71
2022/08/23 10:45:12;;;;;;;;;15.00;15.00;;;;;;;;5173141;28;9541;-69
2022/08/23 10:47:44;;;;;;;;;16.75;16.75;;;;;;;;5196236;28;8874;-69
2022/08/23 10:50:19;;;;;;;;;17.75;17.75;;;;;;;;5189905;28;8923;-70
2022/08/23 10:52:56;;;;;;;;;24.50;24.50;;;;;;;;5174592;28;8789;-70
2022/08/23 10:55:53;;;;;;;;;20.25;20.25;;;;;;;;5179012;28;8811;-70
2022/08/23 10:58:32;;;;;;;;;22.75;22.75;;;;;;;;5177859;28;8852;-70
2022/08/23 11:01:33;;;;;;;;;21.25;21.25;;;;;;;;5176116;28;8803;-70
2022/08/23 11:04:19;;;;;;;;;24.50;24.50;;;;;;;;5174728;28;9528;-69
2022/08/23 11:07:18;;;;;;;;;23.00;23.00;;;;;;;;5189425;28;8778;-70
2022/08/23 11:09:52;;;;;;;;;25.75;25.75;;;;;;;;5174176;28;9760;-70
2022/08/23 11:12:30;;;;;;;;;27.50;27.50;;;;;;;;5190361;28;8814;-71
2022/08/23 11:15:26;;;;;;;;;18.25;18.25;;;;;;;;5192314;28;9523;-72
2022/08/23 11:17:59;;;;;;;;;20.00;20.00;;;;;;;;5161508;28;8784;-71
2022/08/23 11:20:47;;;;;;;;;19.00;19.00;;;;;;;;5181779;28;8775;-72
2022/08/23 11:23:37;;;;;;;;;29.60;28.20;;;;;;;;5216854;28;8786;-71
2022/08/23 11:26:13;;;;;;;;;22.75;22.75;;;;;;;;5203517;28;8783;-72
2022/08/23 11:28:45;;;;;;;;;23.25;23.00;;;;;;;;5224872;28;8838;-71
2022/08/23 11:31:24;;;;;;;;;21.00;20.75;;;;;;;;5211155;28;8756;-71
2022/08/23 11:33:58;;;;;;;;;21.00;21.00;;;;;;;;5206368;28;8787;-71
2022/08/23 11:36:30;;;;;;;;;24.25;24.25;;;;;;;;5211756;28;8799;-69
2022/08/23 11:39:11;;;;;;;;;25.25;25.25;;;;;;;;5220057;28;8787;-70
2022/08/23 11:41:54;;;;;;;;;26.50;26.50;;;;;;;;5221292;28;8815;-72
2022/08/23 11:44:36;;;;;;;;;26.25;26.25;;;;;;;;5200350;28;8810;-71
2022/08/23 11:47:09;;;;;;;;;25.25;25.25;;;;;;;;5212080;28;8802;-70
2022/08/23 11:49:59;;;;;;;;;25.25;25.25;;;;;;;;5189940;28;8809;-70
2022/08/23 11:52:36;;;;;;;;;22.25;22.25;;;;;;;;5173234;28;8801;-69
2022/08/23 11:55:17;;;;;;;;;23.25;21.75;;;;;;;;5189687;28;8781;-69
2022/08/23 11:57:51;;;;;;;;;22.25;22.25;;;;;;;;5157279;28;8940;-70
2022/08/23 12:00:45;;;;;;;;;25.50;25.50;;;;;;;;5172807;28;8823;-70
2022/08/23 12:03:25;;;;;;;;;23.25;22.75;;;;;;;;5225338;28;8798;-70
2022/08/23 12:05:55;;;;;;;;;33.25;31.00;;;;;;;;5184471;28;8872;-70
2022/08/23 12:08:30;;;;;;;;;33.00;30.50;;;;;;;;5176979;28;8900;-70
2022/08/23 12:11:20;;;;;;;;;27.50;26.75;;;;;;;;5197163;28;9529;-70
2022/08/23 12:13:55;;;;;;;;;31.25;30.25;;;;;;;;5176505;28;8854;-69
2022/08/23 12:16:28;;;;;;;;;28.00;28.00;;;;;;;;5209133;28;8767;-69
2022/08/23 12:19:01;;;;;;;;;25.00;22.00;;;;;;;;5207233;28;8807;-70
2022/08/23 12:21:39;;;;;;;;;25.00;25.00;;;;;;;;5227200;28;9545;-72
2022/08/23 12:24:31;;;;;;;;;23.50;23.50;;;;;;;;5191678;28;8852;-69
2022/08/23 12:27:24;;;;;;;;;25.00;25.00;;;;;;;;5204971;28;9630;-69
2022/08/23 12:30:16;;;;;;;;;26.25;26.25;;;;;;;;5188526;28;8832;-70
2022/08/23 12:32:52;;;;;;;;;25.25;25.25;;;;;;;;5200876;28;8815;-71
2022/08/23 12:35:42;;;;;;;;;25.25;25.25;;;;;;;;5199175;28;8781;-70
2022/08/23 12:38:50;;;;;;;;;24.50;24.50;;;;;;;;5188036;28;8777;-70
2022/08/23 12:41:27;;;;;;;;;27.25;27.25;;;;;;;;5158548;28;8827;-70
2022/08/23 12:43:58;;;;;;;;;24.00;24.00;;;;;;;;5206654;28;8875;-70
2022/08/23 12:46:38;;;;;;;;;24.00;24.00;;;;;;;;5189964;28;8787;-69
2022/08/23 12:49:20;;;;;;;;;26.00;26.00;;;;;;;;5201064;28;8817;-70
2022/08/23 12:51:53;;;;;;;;;26.50;26.50;;;;;;;;5193224;28;8813;-71
2022/08/23 12:54:35;;;;;;;;;24.00;23.75;;;;;;;;5211284;28;9518;-69
2022/08/23 12:57:10;;;;;;;;;23.25;23.25;;;;;;;;5191983;28;8795;-69
2022/08/23 12:59:47;;;;;;;;;23.50;23.50;;;;;;;;5191994;28;8795;-69
2022/08/23 13:02:24;;;;;;;;;23.25;23.25;;;;;;;;5209354;28;8783;-71
2022/08/23 13:05:08;;;;;;;;;24.25;24.25;;;;;;;;5188798;28;8808;-70
2022/08/23 13:07:40;;;;;;;;;22.75;22.75;;;;;;;;5188074;28;8809;-70
2022/08/23 13:10:14;;;;;;;;;25.00;25.00;;;;;;;;5171701;28;8789;-70
2022/08/23 13:13:18;;;;;;;;;23.50;23.00;;;;;;;;5189857;28;8806;-71
2022/08/23 13:16:26;;;;;;;;;30.50;29.50;;;;;;;;5208792;28;8823;-71
2022/08/23 13:19:15;;;;;;;;;27.25;26.75;;;;;;;;5225653;28;8791;-71
2022/08/23 13:22:12;;;;;;;;;27.75;27.50;;;;;;;;5226426;28;8775;-71
2022/08/23 13:25:05;;;;;;;;;18.75;18.75;;;;;;;;5208337;28;8787;-70
2022/08/23 13:27:56;;;;;;;;;38.25;33.75;;;;;;;;5203791;28;9577;-71
2022/08/23 13:30:29;;;;;;;;;22.50;22.50;;;;;;;;5206762;28;8827;-70
2022/08/23 13:33:06;;;;;;;;;26.50;26.50;;;;;;;;5180134;28;8890;-70
2022/08/23 13:35:42;;;;;;;;;29.75;29.00;;;;;;;;5191421;28;8817;-71
2022/08/23 13:38:13;;;;;;;;;27.00;27.00;;;;;;;;5184875;28;8993;-70
2022/08/23 13:41:05;;;;;;;;;31.33;30.00;;;;;;;;5169214;28;8939;-71
2022/08/23 13:43:42;;;;;;;;;33.20;31.40;;;;;;;;5186039;28;10381;-70
2022/08/23 13:46:16;;;;;;;;;26.50;26.50;;;;;;;;5184898;28;8800;-70
2022/08/23 13:48:56;;;;;;;;;22.00;22.00;;;;;;;;5202871;28;8836;-71
2022/08/23 13:51:31;;;;;;;;;23.00;23.00;;;;;;;;5202650;28;8817;-71
2022/08/23 13:54:08;;;;;;;;;24.75;24.25;;;;;;;;5168510;28;8788;-71
2022/08/23 13:56:46;;;;;;;;;18.50;18.50;;;;;;;;5188401;28;8814;-70
2022/08/23 13:59:19;;;;;;;;;38.00;34.00;;;;;;;;5223240;28;8807;-71
2022/08/23 14:02:12;;;;;;;;;30.75;29.50;;;;;;;;5197525;28;8812;-72
2022/08/23 14:04:44;;;;;;;;;27.50;27.25;;;;;;;;5185324;28;8773;-71
2022/08/23 14:07:15;;;;;;;;;22.00;22.00;;;;;;;;5185144;28;9612;-71
2022/08/23 14:09:46;;;;;;;;;24.50;24.50;;;;;;;;5184944;28;8820;-70
2022/08/23 14:12:19;;;;;;;;;30.00;29.00;;;;;;;;5152747;28;8801;-71
2022/08/23 14:14:50;;;;;;;;;26.50;26.50;;;;;;;;5185578;28;8860;-71
2022/08/23 14:17:21;;;;;;;;;27.50;27.50;;;;;;;;5202829;28;8781;-71
2022/08/23 14:19:52;;;;;;;;;27.00;26.75;;;;;;;;5184655;28;9563;-71
2022/08/23 14:22:23;;;;;;;;;21.50;21.50;;;;;;;;5195576;28;8779;-71
2022/08/23 14:24:54;;;;;;;;;29.50;28.50;;;;;;;;5205321;28;8838;-71
2022/08/23 14:27:25;;;;;;;;;29.00;28.25;;;;;;;;5188231;28;8826;-70
2022/08/23 14:29:56;;;;;;;;;29.75;29.00;;;;;;;;5208023;28;8906;-71
2022/08/23 14:32:27;;;;;;;;;22.50;22.50;;;;;;;;5171915;28;8832;-71
2022/08/23 14:34:58;;;;;;;;;29.00;28.00;;;;;;;;5216307;28;8834;-70
2022/08/23 14:37:48;;;;;;;;;39.25;34.50;;;;;;;;5208256;28;8802;-71
2022/08/23 14:40:19;;;;;;;;;49.40;41.20;;;;;;;;5192437;28;9628;-70
2022/08/23 14:42:50;;;;;;;;;28.50;28.25;;;;;;;;5207058;28;8803;-70
2022/08/23 14:45:21;;;;;;;;;24.67;24.67;;;;;;;;5208724;28;8787;-70
2022/08/23 14:47:52;;;;;;;;;30.75;28.75;;;;;;;;5225957;28;12117;-71
2022/08/23 14:50:23;;;;;;;;;32.00;30.00;;;;;;;;5191719;28;8925;-72
2022/08/23 14:52:54;;;;;;;;;29.00;28.00;;;;;;;;5208493;28;8802;-72
2022/08/23 14:55:26;;;;;;;;;25.25;25.25;;;;;;;;5208472;28;10537;-71
2022/08/23 14:57:57;;;;;;;;;30.00;29.00;;;;;;;;5206429;28;8785;-71
2022/08/23 15:00:28;;;;;;;;;23.50;23.50;;;;;;;;5171495;28;8891;-73
2022/08/23 15:02:58;;;;;;;;;27.25;27.00;;;;;;;;5203356;28;9666;-71
2022/08/23 15:05:30;;;;;;;;;31.75;29.50;;;;;;;;5204454;28;8793;-71
2022/08/23 15:08:01;;;;;;;;;31.00;29.50;;;;;;;;5203729;28;8828;-71
2022/08/23 15:10:53;;;;;;;;;32.00;29.50;;;;;;;;5188304;28;8793;-71
2022/08/23 15:13:24;;;;;;;;;28.50;27.75;;;;;;;;5188671;28;8962;-71
2022/08/23 15:15:55;;;;;;;;;25.50;25.50;;;;;;;;5154651;28;8805;-73
2022/08/23 15:18:26;;;;;;;;;31.50;30.25;;;;;;;;5155369;28;9547;-70
2022/08/23 15:20:57;;;;;;;;;30.25;29.00;;;;;;;;5187355;28;8813;-70
2022/08/23 15:23:28;;;;;;;;;33.50;31.00;;;;;;;;5204808;28;8805;-71
2022/08/23 15:25:59;;;;;;;;;33.00;30.75;;;;;;;;5174265;28;8791;-71
2022/08/23 15:28:30;;;;;;;;;32.75;30.50;;;;;;;;5190820;28;8969;-70
2022/08/23 15:31:01;;;;;;;;;33.00;30.50;;;;;;;;5190871;28;8949;-70
2022/08/23 15:33:32;;;;;;;;;30.25;28.75;;;;;;;;5207298;28;8806;-70
2022/08/23 15:36:05;;;;;;;;;39.50;34.75;;;;;;;;5190015;28;9680;-70
2022/08/23 15:38:36;;;;;;;;;36.50;32.75;;;;;;;;5200495;28;8947;-70
2022/08/23 15:41:07;;;;;;;;;38.75;34.00;;;;;;;;5206655;28;8818;-70
2022/08/23 15:43:39;;;;;;;;;36.75;33.25;;;;;;;;5206123;28;8817;-72
2022/08/23 15:46:14;;;;;;;;;35.80;32.60;;;;;;;;5176288;28;9535;-72
2022/08/23 15:48:56;;;;;;;;;41.25;35.00;;;;;;;;5191637;28;8811;-72
2022/08/23 15:51:27;;;;;;;;;62.00;51.80;;;;;;;;5201958;28;8795;-72